sensor_id;sensor_type;location;lat;lon;timestamp;P1;durP1;ratioP1;P2;durP2;ratioP2
64881;SDS011;51375;44.836;38.672;2024-02-04T00:00:08;2.20;;;1.55;;
64881;SDS011;51375;44.836;38.672;2024-02-04T00:02:37;1.77;;;1.60;;
64881;SDS011;51375;44.836;38.672;2024-02-04T00:05:03;1.42;;;1.20;;
64881;SDS011;51375;44.836;38.672;2024-02-04T00:07:29;2.63;;;1.60;;
64881;SDS011;51375;44.836;38.672;2024-02-04T00:09:57;2.58;;;1.65;;
64881;SDS011;51375;44.836;38.672;2024-02-04T00:12:23;1.27;;;1.17;;
64881;SDS011;51375;44.836;38.672;2024-02-04T00:14:50;1.65;;;1.20;;
64881;SDS011;51375;44.836;38.672;2024-02-04T00:17:16;2.08;;;1.58;;
64881;SDS011;51375;44.836;38.672;2024-02-04T00:19:42;2.15;;;1.38;;
64881;SDS011;51375;44.836;38.672;2024-02-04T00:22:08;1.42;;;1.30;;
64881;SDS011;51375;44.836;38.672;2024-02-04T00:24:34;1.30;;;1.20;;
64881;SDS011;51375;44.836;38.672;2024-02-04T00:27:00;2.53;;;1.33;;
64881;SDS011;51375;44.836;38.672;2024-02-04T00:29:26;1.73;;;1.38;;
64881;SDS011;51375;44.836;38.672;2024-02-04T00:31:52;1.58;;;1.30;;
64881;SDS011;51375;44.836;38.672;2024-02-04T00:34:19;1.35;;;1.25;;
64881;SDS011;51375;44.836;38.672;2024-02-04T00:36:44;2.15;;;1.40;;
64881;SDS011;51375;44.836;38.672;2024-02-04T00:39:10;1.30;;;1.20;;
64881;SDS011;51375;44.836;38.672;2024-02-04T00:41:36;1.38;;;1.27;;
64881;SDS011;51375;44.836;38.672;2024-02-04T00:44:02;2.00;;;1.60;;
64881;SDS011;51375;44.836;38.672;2024-02-04T00:46:28;1.45;;;1.23;;
64881;SDS011;51375;44.836;38.672;2024-02-04T00:48:55;1.30;;;1.20;;
64881;SDS011;51375;44.836;38.672;2024-02-04T00:51:22;2.25;;;1.20;;
64881;SDS011;51375;44.836;38.672;2024-02-04T00:53:48;3.83;;;1.58;;
64881;SDS011;51375;44.836;38.672;2024-02-04T00:56:14;1.55;;;1.20;;
64881;SDS011;51375;44.836;38.672;2024-02-04T00:58:40;2.88;;;1.15;;
64881;SDS011;51375;44.836;38.672;2024-02-04T01:01:06;2.03;;;1.15;;
64881;SDS011;51375;44.836;38.672;2024-02-04T01:03:32;1.80;;;1.00;;
64881;SDS011;51375;44.836;38.672;2024-02-04T01:05:59;2.22;;;1.20;;
64881;SDS011;51375;44.836;38.672;2024-02-04T01:08:25;1.20;;;1.10;;
64881;SDS011;51375;44.836;38.672;2024-02-04T01:10:51;1.20;;;1.10;;
64881;SDS011;51375;44.836;38.672;2024-02-04T01:13:17;1.55;;;1.33;;
64881;SDS011;51375;44.836;38.672;2024-02-04T01:15:44;1.40;;;1.20;;
64881;SDS011;51375;44.836;38.672;2024-02-04T01:18:11;1.20;;;1.10;;
64881;SDS011;51375;44.836;38.672;2024-02-04T01:20:38;1.30;;;1.20;;
64881;SDS011;51375;44.836;38.672;2024-02-04T01:23:05;1.95;;;1.10;;
64881;SDS011;51375;44.836;38.672;2024-02-04T01:25:31;1.48;;;1.10;;
64881;SDS011;51375;44.836;38.672;2024-02-04T01:27:57;1.40;;;1.20;;
64881;SDS011;51375;44.836;38.672;2024-02-04T01:30:23;1.63;;;1.38;;
64881;SDS011;51375;44.836;38.672;2024-02-04T01:32:49;1.13;;;1.08;;
64881;SDS011;51375;44.836;38.672;2024-02-04T01:35:14;1.10;;;0.88;;
64881;SDS011;51375;44.836;38.672;2024-02-04T01:37:40;1.52;;;0.98;;
64881;SDS011;51375;44.836;38.672;2024-02-04T01:40:08;1.05;;;1.02;;
64881;SDS011;51375;44.836;38.672;2024-02-04T01:42:35;1.75;;;1.30;;
64881;SDS011;51375;44.836;38.672;2024-02-04T01:45:01;1.63;;;1.10;;
64881;SDS011;51375;44.836;38.672;2024-02-04T01:47:27;0.90;;;0.90;;
64881;SDS011;51375;44.836;38.672;2024-02-04T01:49:53;2.38;;;1.10;;
64881;SDS011;51375;44.836;38.672;2024-02-04T01:52:19;1.33;;;1.20;;
64881;SDS011;51375;44.836;38.672;2024-02-04T01:54:45;1.00;;;1.00;;
64881;SDS011;51375;44.836;38.672;2024-02-04T01:57:12;1.65;;;1.23;;
64881;SDS011;51375;44.836;38.672;2024-02-04T01:59:39;1.38;;;1.27;;
64881;SDS011;51375;44.836;38.672;2024-02-04T02:02:06;1.17;;;1.10;;
64881;SDS011;51375;44.836;38.672;2024-02-04T02:04:32;2.33;;;1.20;;
64881;SDS011;51375;44.836;38.672;2024-02-04T02:06:58;1.75;;;1.20;;
64881;SDS011;51375;44.836;38.672;2024-02-04T02:09:25;1.10;;;1.00;;
64881;SDS011;51375;44.836;38.672;2024-02-04T02:14:35;1.42;;;1.00;;
64881;SDS011;51375;44.836;38.672;2024-02-04T02:17:16;1.00;;;0.90;;
64881;SDS011;51375;44.836;38.672;2024-02-04T02:19:51;1.58;;;1.10;;
64881;SDS011;51375;44.836;38.672;2024-02-04T02:22:29;1.10;;;1.02;;
64881;SDS011;51375;44.836;38.672;2024-02-04T02:25:03;1.17;;;1.00;;
64881;SDS011;51375;44.836;38.672;2024-02-04T02:27:30;1.95;;;1.50;;
64881;SDS011;51375;44.836;38.672;2024-02-04T02:29:56;1.08;;;1.08;;
64881;SDS011;51375;44.836;38.672;2024-02-04T02:32:22;0.95;;;0.90;;
64881;SDS011;51375;44.836;38.672;2024-02-04T02:34:49;1.50;;;1.30;;
64881;SDS011;51375;44.836;38.672;2024-02-04T02:40:08;2.33;;;1.17;;
64881;SDS011;51375;44.836;38.672;2024-02-04T02:42:36;1.35;;;0.80;;
64881;SDS011;51375;44.836;38.672;2024-02-04T02:45:07;2.78;;;1.10;;
64881;SDS011;51375;44.836;38.672;2024-02-04T02:47:35;1.08;;;1.00;;
64881;SDS011;51375;44.836;38.672;2024-02-04T02:50:04;1.30;;;1.20;;
64881;SDS011;51375;44.836;38.672;2024-02-04T02:52:31;1.20;;;1.10;;
64881;SDS011;51375;44.836;38.672;2024-02-04T02:54:57;1.35;;;1.10;;
64881;SDS011;51375;44.836;38.672;2024-02-04T02:57:23;1.15;;;1.02;;
64881;SDS011;51375;44.836;38.672;2024-02-04T02:59:48;1.50;;;0.95;;
64881;SDS011;51375;44.836;38.672;2024-02-04T03:02:14;1.35;;;1.20;;
64881;SDS011;51375;44.836;38.672;2024-02-04T03:04:41;0.88;;;0.88;;
64881;SDS011;51375;44.836;38.672;2024-02-04T03:07:08;0.90;;;0.90;;
64881;SDS011;51375;44.836;38.672;2024-02-04T03:09:34;1.38;;;1.20;;
64881;SDS011;51375;44.836;38.672;2024-02-04T03:12:00;1.02;;;1.00;;
64881;SDS011;51375;44.836;38.672;2024-02-04T03:14:26;1.00;;;1.00;;
64881;SDS011;51375;44.836;38.672;2024-02-04T03:16:52;1.30;;;1.20;;
64881;SDS011;51375;44.836;38.672;2024-02-04T03:19:17;1.60;;;1.13;;
64881;SDS011;51375;44.836;38.672;2024-02-04T03:21:44;1.00;;;1.00;;
64881;SDS011;51375;44.836;38.672;2024-02-04T03:24:12;1.48;;;1.10;;
64881;SDS011;51375;44.836;38.672;2024-02-04T03:26:38;1.48;;;1.10;;
64881;SDS011;51375;44.836;38.672;2024-02-04T03:29:04;1.05;;;1.00;;
64881;SDS011;51375;44.836;38.672;2024-02-04T03:31:31;1.38;;;1.13;;
64881;SDS011;51375;44.836;38.672;2024-02-04T03:33:57;0.70;;;0.70;;
64881;SDS011;51375;44.836;38.672;2024-02-04T03:36:26;1.10;;;1.00;;
64881;SDS011;51375;44.836;38.672;2024-02-04T03:38:52;1.17;;;1.08;;
64881;SDS011;51375;44.836;38.672;2024-02-04T03:41:18;0.90;;;0.90;;
64881;SDS011;51375;44.836;38.672;2024-02-04T03:43:45;1.20;;;1.10;;
64881;SDS011;51375;44.836;38.672;2024-02-04T03:46:15;1.20;;;1.02;;
64881;SDS011;51375;44.836;38.672;2024-02-04T03:48:42;1.77;;;1.33;;
64881;SDS011;51375;44.836;38.672;2024-02-04T03:51:14;1.08;;;0.98;;
64881;SDS011;51375;44.836;38.672;2024-02-04T03:56:08;1.80;;;1.10;;
64881;SDS011;51375;44.836;38.672;2024-02-04T03:58:34;1.17;;;1.08;;
64881;SDS011;51375;44.836;38.672;2024-02-04T04:01:01;1.20;;;1.10;;
64881;SDS011;51375;44.836;38.672;2024-02-04T04:03:27;2.33;;;1.00;;
64881;SDS011;51375;44.836;38.672;2024-02-04T04:05:53;0.77;;;0.77;;
64881;SDS011;51375;44.836;38.672;2024-02-04T04:08:20;3.42;;;1.00;;
64881;SDS011;51375;44.836;38.672;2024-02-04T04:10:45;1.05;;;0.90;;
64881;SDS011;51375;44.836;38.672;2024-02-04T04:13:12;0.95;;;0.93;;
64881;SDS011;51375;44.836;38.672;2024-02-04T04:15:40;0.80;;;0.80;;
64881;SDS011;51375;44.836;38.672;2024-02-04T04:18:07;1.20;;;1.00;;
64881;SDS011;51375;44.836;38.672;2024-02-04T04:20:33;0.98;;;0.75;;
64881;SDS011;51375;44.836;38.672;2024-02-04T04:22:59;0.80;;;0.80;;
64881;SDS011;51375;44.836;38.672;2024-02-04T04:25:25;0.90;;;0.90;;
64881;SDS011;51375;44.836;38.672;2024-02-04T04:27:51;0.90;;;0.90;;
64881;SDS011;51375;44.836;38.672;2024-02-04T04:30:17;1.10;;;1.00;;
64881;SDS011;51375;44.836;38.672;2024-02-04T04:32:43;1.23;;;0.80;;
64881;SDS011;51375;44.836;38.672;2024-02-04T04:35:09;0.80;;;0.80;;
64881;SDS011;51375;44.836;38.672;2024-02-04T04:37:34;1.20;;;1.10;;
64881;SDS011;51375;44.836;38.672;2024-02-04T04:40:00;1.15;;;0.90;;
64881;SDS011;51375;44.836;38.672;2024-02-04T04:42:26;0.98;;;0.80;;
64881;SDS011;51375;44.836;38.672;2024-02-04T04:44:52;0.73;;;0.73;;
64881;SDS011;51375;44.836;38.672;2024-02-04T04:47:18;1.05;;;0.80;;
64881;SDS011;51375;44.836;38.672;2024-02-04T04:49:44;0.80;;;0.80;;
64881;SDS011;51375;44.836;38.672;2024-02-04T04:52:10;0.70;;;0.70;;
64881;SDS011;51375;44.836;38.672;2024-02-04T04:54:36;0.80;;;0.80;;
64881;SDS011;51375;44.836;38.672;2024-02-04T04:57:02;0.80;;;0.80;;
64881;SDS011;51375;44.836;38.672;2024-02-04T04:59:28;0.63;;;0.63;;
64881;SDS011;51375;44.836;38.672;2024-02-04T05:01:54;0.68;;;0.68;;
64881;SDS011;51375;44.836;38.672;2024-02-04T05:04:20;2.53;;;1.00;;
64881;SDS011;51375;44.836;38.672;2024-02-04T05:06:50;1.05;;;0.95;;
64881;SDS011;51375;44.836;38.672;2024-02-04T05:09:16;1.23;;;0.82;;
64881;SDS011;51375;44.836;38.672;2024-02-04T05:11:42;1.95;;;0.95;;
64881;SDS011;51375;44.836;38.672;2024-02-04T05:14:08;0.80;;;0.80;;
64881;SDS011;51375;44.836;38.672;2024-02-04T05:16:34;1.25;;;0.70;;
64881;SDS011;51375;44.836;38.672;2024-02-04T05:19:03;0.80;;;0.80;;
64881;SDS011;51375;44.836;38.672;2024-02-04T05:21:29;1.38;;;0.80;;
64881;SDS011;51375;44.836;38.672;2024-02-04T05:23:55;1.58;;;1.00;;
64881;SDS011;51375;44.836;38.672;2024-02-04T05:26:21;0.90;;;0.90;;
64881;SDS011;51375;44.836;38.672;2024-02-04T05:28:47;1.23;;;1.10;;
64881;SDS011;51375;44.836;38.672;2024-02-04T05:31:13;1.20;;;1.10;;
64881;SDS011;51375;44.836;38.672;2024-02-04T05:33:39;0.80;;;0.80;;
64881;SDS011;51375;44.836;38.672;2024-02-04T05:36:05;1.13;;;0.88;;
64881;SDS011;51375;44.836;38.672;2024-02-04T05:38:31;0.80;;;0.80;;
64881;SDS011;51375;44.836;38.672;2024-02-04T05:40:57;1.00;;;0.90;;
64881;SDS011;51375;44.836;38.672;2024-02-04T05:43:23;0.90;;;0.90;;
64881;SDS011;51375;44.836;38.672;2024-02-04T05:45:49;1.33;;;0.98;;
64881;SDS011;51375;44.836;38.672;2024-02-04T05:48:15;1.30;;;1.00;;
64881;SDS011;51375;44.836;38.672;2024-02-04T05:50:41;3.28;;;1.00;;
64881;SDS011;51375;44.836;38.672;2024-02-04T05:53:07;0.90;;;0.90;;
64881;SDS011;51375;44.836;38.672;2024-02-04T05:55:33;0.90;;;0.90;;
64881;SDS011;51375;44.836;38.672;2024-02-04T05:57:59;1.13;;;1.02;;
64881;SDS011;51375;44.836;38.672;2024-02-04T06:00:25;0.90;;;0.90;;
64881;SDS011;51375;44.836;38.672;2024-02-04T06:02:51;1.35;;;1.13;;
64881;SDS011;51375;44.836;38.672;2024-02-04T09:31:13;1.73;;;1.10;;
64881;SDS011;51375;44.836;38.672;2024-02-04T09:33:39;1.10;;;1.00;;
64881;SDS011;51375;44.836;38.672;2024-02-04T09:36:06;1.45;;;1.17;;
64881;SDS011;51375;44.836;38.672;2024-02-04T09:38:32;3.35;;;1.60;;
64881;SDS011;51375;44.836;38.672;2024-02-04T09:40:58;1.33;;;1.20;;
64881;SDS011;51375;44.836;38.672;2024-02-04T09:43:25;1.83;;;1.00;;
64881;SDS011;51375;44.836;38.672;2024-02-04T09:45:52;1.20;;;1.10;;
64881;SDS011;51375;44.836;38.672;2024-02-04T09:48:18;1.88;;;1.27;;
64881;SDS011;51375;44.836;38.672;2024-02-04T09:50:45;1.45;;;1.20;;
64881;SDS011;51375;44.836;38.672;2024-02-04T09:53:12;2.38;;;1.30;;
64881;SDS011;51375;44.836;38.672;2024-02-04T09:55:43;1.25;;;1.15;;
64881;SDS011;51375;44.836;38.672;2024-02-04T09:58:10;2.97;;;2.03;;
64881;SDS011;51375;44.836;38.672;2024-02-04T10:00:36;2.05;;;1.23;;
64881;SDS011;51375;44.836;38.672;2024-02-04T10:03:05;1.50;;;1.30;;
64881;SDS011;51375;44.836;38.672;2024-02-04T10:05:31;1.48;;;1.25;;
64881;SDS011;51375;44.836;38.672;2024-02-04T10:07:57;1.38;;;1.27;;
64881;SDS011;51375;44.836;38.672;2024-02-04T10:10:23;2.08;;;1.40;;
64881;SDS011;51375;44.836;38.672;2024-02-04T10:12:50;2.03;;;1.63;;
64881;SDS011;51375;44.836;38.672;2024-02-04T10:15:16;4.20;;;1.70;;
64881;SDS011;51375;44.836;38.672;2024-02-04T10:17:44;1.70;;;1.38;;
64881;SDS011;51375;44.836;38.672;2024-02-04T10:20:11;3.72;;;1.50;;
64881;SDS011;51375;44.836;38.672;2024-02-04T10:22:37;5.70;;;1.85;;
64881;SDS011;51375;44.836;38.672;2024-02-04T10:25:10;3.50;;;1.70;;
64881;SDS011;51375;44.836;38.672;2024-02-04T10:27:37;2.85;;;1.70;;
64881;SDS011;51375;44.836;38.672;2024-02-04T10:30:04;3.67;;;2.10;;
64881;SDS011;51375;44.836;38.672;2024-02-04T10:32:31;3.30;;;2.03;;
64881;SDS011;51375;44.836;38.672;2024-02-04T10:34:57;2.55;;;1.70;;
64881;SDS011;51375;44.836;38.672;2024-02-04T10:37:24;3.47;;;1.88;;
64881;SDS011;51375;44.836;38.672;2024-02-04T10:39:50;2.63;;;1.80;;
64881;SDS011;51375;44.836;38.672;2024-02-04T10:42:16;3.88;;;1.60;;
64881;SDS011;51375;44.836;38.672;2024-02-04T10:44:46;3.22;;;1.60;;
64881;SDS011;51375;44.836;38.672;2024-02-04T10:47:17;4.32;;;1.42;;
64881;SDS011;51375;44.836;38.672;2024-02-04T10:49:52;3.50;;;1.80;;
64881;SDS011;51375;44.836;38.672;2024-02-04T10:52:25;4.10;;;1.83;;
64881;SDS011;51375;44.836;38.672;2024-02-04T10:54:53;3.58;;;1.88;;
64881;SDS011;51375;44.836;38.672;2024-02-04T12:03:58;7.05;;;2.95;;
64881;SDS011;51375;44.836;38.672;2024-02-04T12:06:44;7.15;;;2.97;;
64881;SDS011;51375;44.836;38.672;2024-02-04T12:09:10;9.25;;;3.33;;
64881;SDS011;51375;44.836;38.672;2024-02-04T12:11:38;4.55;;;2.67;;
64881;SDS011;51375;44.836;38.672;2024-02-04T12:14:04;7.45;;;2.78;;
64881;SDS011;51375;44.836;38.672;2024-02-04T12:16:32;5.68;;;2.88;;
64881;SDS011;51375;44.836;38.672;2024-02-04T12:19:01;11.93;;;3.67;;
64881;SDS011;51375;44.836;38.672;2024-02-04T12:21:30;5.88;;;2.60;;
64881;SDS011;51375;44.836;38.672;2024-02-04T12:23:56;6.38;;;2.70;;
64881;SDS011;51375;44.836;38.672;2024-02-04T12:26:23;6.40;;;3.05;;
64881;SDS011;51375;44.836;38.672;2024-02-04T12:28:50;7.00;;;3.15;;
64881;SDS011;51375;44.836;38.672;2024-02-04T12:31:19;9.95;;;3.10;;
64881;SDS011;51375;44.836;38.672;2024-02-04T12:33:53;8.25;;;3.10;;
64881;SDS011;51375;44.836;38.672;2024-02-04T12:36:20;7.32;;;3.38;;
64881;SDS011;51375;44.836;38.672;2024-02-04T12:38:56;11.82;;;3.45;;
64881;SDS011;51375;44.836;38.672;2024-02-04T12:41:26;6.60;;;3.40;;
64881;SDS011;51375;44.836;38.672;2024-02-04T12:43:53;8.63;;;3.00;;
64881;SDS011;51375;44.836;38.672;2024-02-04T12:46:21;7.05;;;3.20;;
64881;SDS011;51375;44.836;38.672;2024-02-04T12:48:52;8.52;;;3.20;;
64881;SDS011;51375;44.836;38.672;2024-02-04T12:54:05;7.38;;;2.80;;
64881;SDS011;51375;44.836;38.672;2024-02-04T12:56:41;7.57;;;3.40;;
64881;SDS011;51375;44.836;38.672;2024-02-04T12:59:08;5.80;;;3.22;;
64881;SDS011;51375;44.836;38.672;2024-02-04T13:01:35;6.15;;;3.45;;
64881;SDS011;51375;44.836;38.672;2024-02-04T13:04:03;10.63;;;3.30;;
64881;SDS011;51375;44.836;38.672;2024-02-04T13:06:29;8.80;;;3.33;;
64881;SDS011;51375;44.836;38.672;2024-02-04T13:08:57;11.85;;;3.80;;
64881;SDS011;51375;44.836;38.672;2024-02-04T13:11:24;8.52;;;3.50;;
64881;SDS011;51375;44.836;38.672;2024-02-04T13:13:50;7.35;;;3.50;;
64881;SDS011;51375;44.836;38.672;2024-02-04T13:16:19;10.68;;;3.80;;
64881;SDS011;51375;44.836;38.672;2024-02-04T13:18:53;7.78;;;3.47;;
64881;SDS011;51375;44.836;38.672;2024-02-04T13:21:19;9.18;;;3.65;;
64881;SDS011;51375;44.836;38.672;2024-02-04T13:23:50;9.48;;;3.80;;
64881;SDS011;51375;44.836;38.672;2024-02-04T13:26:16;6.53;;;3.08;;
64881;SDS011;51375;44.836;38.672;2024-02-04T13:28:42;7.72;;;3.00;;
64881;SDS011;51375;44.836;38.672;2024-02-04T13:31:09;12.50;;;3.35;;
64881;SDS011;51375;44.836;38.672;2024-02-04T13:33:35;5.60;;;2.95;;
64881;SDS011;51375;44.836;38.672;2024-02-04T13:36:03;11.07;;;3.53;;
64881;SDS011;51375;44.836;38.672;2024-02-04T13:38:34;10.82;;;3.88;;
64881;SDS011;51375;44.836;38.672;2024-02-04T13:41:03;9.82;;;3.33;;
64881;SDS011;51375;44.836;38.672;2024-02-04T13:43:31;8.45;;;4.00;;
64881;SDS011;51375;44.836;38.672;2024-02-04T13:45:59;10.52;;;4.07;;
64881;SDS011;51375;44.836;38.672;2024-02-04T13:48:26;7.78;;;3.80;;
64881;SDS011;51375;44.836;38.672;2024-02-04T13:50:52;13.88;;;3.85;;
64881;SDS011;51375;44.836;38.672;2024-02-04T13:53:19;12.63;;;4.50;;
64881;SDS011;51375;44.836;38.672;2024-02-04T13:55:46;9.15;;;3.35;;
64881;SDS011;51375;44.836;38.672;2024-02-04T13:58:14;7.28;;;3.42;;
64881;SDS011;51375;44.836;38.672;2024-02-04T14:00:40;11.00;;;3.55;;
64881;SDS011;51375;44.836;38.672;2024-02-04T14:03:06;11.18;;;3.47;;
64881;SDS011;51375;44.836;38.672;2024-02-04T14:05:32;13.30;;;4.03;;
64881;SDS011;51375;44.836;38.672;2024-02-04T14:07:59;9.65;;;3.33;;
64881;SDS011;51375;44.836;38.672;2024-02-04T14:10:25;12.20;;;4.18;;
64881;SDS011;51375;44.836;38.672;2024-02-04T14:12:52;9.90;;;3.60;;
64881;SDS011;51375;44.836;38.672;2024-02-04T14:15:18;10.00;;;3.30;;
64881;SDS011;51375;44.836;38.672;2024-02-04T14:17:44;10.05;;;3.50;;
64881;SDS011;51375;44.836;38.672;2024-02-04T14:20:10;9.45;;;2.75;;
64881;SDS011;51375;44.836;38.672;2024-02-04T14:22:36;8.60;;;2.70;;
64881;SDS011;51375;44.836;38.672;2024-02-04T14:25:02;7.18;;;3.05;;
64881;SDS011;51375;44.836;38.672;2024-02-04T14:27:28;6.05;;;3.13;;
64881;SDS011;51375;44.836;38.672;2024-02-04T14:29:55;9.40;;;3.20;;
64881;SDS011;51375;44.836;38.672;2024-02-04T14:32:20;4.28;;;2.10;;
64881;SDS011;51375;44.836;38.672;2024-02-04T14:34:46;4.18;;;2.00;;
64881;SDS011;51375;44.836;38.672;2024-02-04T14:37:13;4.05;;;2.40;;
64881;SDS011;51375;44.836;38.672;2024-02-04T14:39:40;7.50;;;2.65;;
64881;SDS011;51375;44.836;38.672;2024-02-04T14:42:08;6.38;;;2.47;;
64881;SDS011;51375;44.836;38.672;2024-02-04T14:44:35;7.05;;;2.60;;
64881;SDS011;51375;44.836;38.672;2024-02-04T14:47:01;5.93;;;2.60;;
64881;SDS011;51375;44.836;38.672;2024-02-04T14:49:28;5.85;;;2.60;;
64881;SDS011;51375;44.836;38.672;2024-02-04T14:51:54;4.38;;;2.10;;
64881;SDS011;51375;44.836;38.672;2024-02-04T14:54:20;6.88;;;2.80;;
64881;SDS011;51375;44.836;38.672;2024-02-04T14:56:47;4.28;;;2.70;;
64881;SDS011;51375;44.836;38.672;2024-02-04T14:59:15;5.32;;;2.38;;
64881;SDS011;51375;44.836;38.672;2024-02-04T15:01:44;7.18;;;2.63;;
64881;SDS011;51375;44.836;38.672;2024-02-04T15:04:14;6.00;;;2.07;;
64881;SDS011;51375;44.836;38.672;2024-02-04T15:06:41;4.25;;;2.47;;
64881;SDS011;51375;44.836;38.672;2024-02-04T15:09:07;5.78;;;2.40;;
64881;SDS011;51375;44.836;38.672;2024-02-04T15:11:35;7.07;;;2.30;;
64881;SDS011;51375;44.836;38.672;2024-02-04T15:14:02;4.63;;;2.80;;
64881;SDS011;51375;44.836;38.672;2024-02-04T15:16:28;6.88;;;2.53;;
64881;SDS011;51375;44.836;38.672;2024-02-04T15:18:54;4.75;;;2.55;;
64881;SDS011;51375;44.836;38.672;2024-02-04T15:21:21;9.38;;;2.60;;
64881;SDS011;51375;44.836;38.672;2024-02-04T15:23:49;3.58;;;2.15;;
64881;SDS011;51375;44.836;38.672;2024-02-04T15:26:16;8.52;;;2.60;;
64881;SDS011;51375;44.836;38.672;2024-02-04T15:28:42;7.00;;;3.03;;
64881;SDS011;51375;44.836;38.672;2024-02-04T15:31:13;6.88;;;2.80;;
64881;SDS011;51375;44.836;38.672;2024-02-04T15:33:39;4.22;;;1.88;;
64881;SDS011;51375;44.836;38.672;2024-02-04T15:36:09;4.72;;;2.15;;
64881;SDS011;51375;44.836;38.672;2024-02-04T15:38:35;4.93;;;2.38;;
64881;SDS011;51375;44.836;38.672;2024-02-04T15:41:02;4.90;;;2.50;;
64881;SDS011;51375;44.836;38.672;2024-02-04T15:43:28;6.07;;;2.67;;
64881;SDS011;51375;44.836;38.672;2024-02-04T15:45:55;5.00;;;2.70;;
64881;SDS011;51375;44.836;38.672;2024-02-04T15:48:25;10.40;;;2.60;;
64881;SDS011;51375;44.836;38.672;2024-02-04T15:50:55;5.32;;;2.75;;
64881;SDS011;51375;44.836;38.672;2024-02-04T15:53:23;5.85;;;2.92;;
64881;SDS011;51375;44.836;38.672;2024-02-04T15:55:50;4.18;;;2.58;;
64881;SDS011;51375;44.836;38.672;2024-02-04T15:58:16;7.88;;;3.15;;
64881;SDS011;51375;44.836;38.672;2024-02-04T16:00:43;9.93;;;3.00;;
64881;SDS011;51375;44.836;38.672;2024-02-04T16:03:10;6.00;;;3.05;;
64881;SDS011;51375;44.836;38.672;2024-02-04T16:05:37;5.35;;;2.75;;
64881;SDS011;51375;44.836;38.672;2024-02-04T16:08:03;8.63;;;3.05;;
64881;SDS011;51375;44.836;38.672;2024-02-04T16:10:30;6.45;;;3.08;;
64881;SDS011;51375;44.836;38.672;2024-02-04T16:12:57;7.47;;;3.17;;
64881;SDS011;51375;44.836;38.672;2024-02-04T16:15:26;9.40;;;3.58;;
64881;SDS011;51375;44.836;38.672;2024-02-04T16:17:53;6.43;;;3.13;;
64881;SDS011;51375;44.836;38.672;2024-02-04T16:20:20;7.38;;;3.15;;
64881;SDS011;51375;44.836;38.672;2024-02-04T16:22:47;6.57;;;2.90;;
64881;SDS011;51375;44.836;38.672;2024-02-04T16:25:14;6.93;;;3.38;;
64881;SDS011;51375;44.836;38.672;2024-02-04T16:27:41;8.90;;;3.13;;
64881;SDS011;51375;44.836;38.672;2024-02-04T16:30:09;5.32;;;2.65;;
64881;SDS011;51375;44.836;38.672;2024-02-04T16:32:35;8.50;;;2.97;;
64881;SDS011;51375;44.836;38.672;2024-02-04T16:35:04;6.57;;;3.17;;
64881;SDS011;51375;44.836;38.672;2024-02-04T16:37:31;4.93;;;2.92;;
64881;SDS011;51375;44.836;38.672;2024-02-04T16:39:57;11.35;;;3.30;;
64881;SDS011;51375;44.836;38.672;2024-02-04T16:42:23;11.00;;;3.67;;
64881;SDS011;51375;44.836;38.672;2024-02-04T16:44:50;8.07;;;3.50;;
64881;SDS011;51375;44.836;38.672;2024-02-04T16:47:20;5.25;;;2.92;;
64881;SDS011;51375;44.836;38.672;2024-02-04T16:49:46;117.90;;;7.00;;
64881;SDS011;51375;44.836;38.672;2024-02-04T16:52:13;3.08;;;1.90;;
64881;SDS011;51375;44.836;38.672;2024-02-04T16:54:39;24.17;;;2.63;;
64881;SDS011;51375;44.836;38.672;2024-02-04T16:57:06;2.55;;;1.80;;
64881;SDS011;51375;44.836;38.672;2024-02-04T16:59:33;4.38;;;2.40;;
64881;SDS011;51375;44.836;38.672;2024-02-04T17:02:02;4.03;;;1.92;;
64881;SDS011;51375;44.836;38.672;2024-02-04T17:04:29;3.08;;;2.13;;
64881;SDS011;51375;44.836;38.672;2024-02-04T17:06:55;5.95;;;3.05;;
64881;SDS011;51375;44.836;38.672;2024-02-04T17:09:22;7.40;;;3.08;;
64881;SDS011;51375;44.836;38.672;2024-02-04T17:11:48;6.22;;;3.10;;
64881;SDS011;51375;44.836;38.672;2024-02-04T17:14:14;7.30;;;2.47;;
64881;SDS011;51375;44.836;38.672;2024-02-04T17:16:45;5.00;;;2.67;;
64881;SDS011;51375;44.836;38.672;2024-02-04T17:22:12;2.80;;;1.88;;
64881;SDS011;51375;44.836;38.672;2024-02-04T17:24:43;7.60;;;2.08;;
64881;SDS011;51375;44.836;38.672;2024-02-04T17:27:19;4.65;;;2.50;;
64881;SDS011;51375;44.836;38.672;2024-02-04T17:29:45;2.35;;;1.50;;
64881;SDS011;51375;44.836;38.672;2024-02-04T17:32:13;6.40;;;2.10;;
64881;SDS011;51375;44.836;38.672;2024-02-04T17:34:40;4.38;;;1.90;;
64881;SDS011;51375;44.836;38.672;2024-02-04T17:37:06;3.13;;;1.95;;
64881;SDS011;51375;44.836;38.672;2024-02-04T17:39:33;5.97;;;2.30;;
64881;SDS011;51375;44.836;38.672;2024-02-04T17:42:01;5.40;;;2.28;;
64881;SDS011;51375;44.836;38.672;2024-02-04T17:44:33;6.60;;;1.98;;
64881;SDS011;51375;44.836;38.672;2024-02-04T17:46:59;4.72;;;2.10;;
64881;SDS011;51375;44.836;38.672;2024-02-04T17:49:26;5.65;;;2.53;;
64881;SDS011;51375;44.836;38.672;2024-02-04T17:51:52;5.15;;;2.60;;
64881;SDS011;51375;44.836;38.672;2024-02-04T17:54:19;7.25;;;2.53;;
64881;SDS011;51375;44.836;38.672;2024-02-04T17:56:45;2.40;;;1.70;;
64881;SDS011;51375;44.836;38.672;2024-02-04T17:59:11;4.97;;;1.98;;
64881;SDS011;51375;44.836;38.672;2024-02-04T18:01:37;5.95;;;2.20;;
64881;SDS011;51375;44.836;38.672;2024-02-04T18:04:03;4.75;;;2.22;;
64881;SDS011;51375;44.836;38.672;2024-02-04T18:06:36;6.93;;;2.88;;
64881;SDS011;51375;44.836;38.672;2024-02-04T18:09:05;4.50;;;2.50;;
64881;SDS011;51375;44.836;38.672;2024-02-04T18:11:32;8.65;;;3.03;;
64881;SDS011;51375;44.836;38.672;2024-02-04T18:13:58;3.25;;;2.00;;
64881;SDS011;51375;44.836;38.672;2024-02-04T18:16:30;4.28;;;2.10;;
64881;SDS011;51375;44.836;38.672;2024-02-04T18:18:56;4.43;;;2.35;;
64881;SDS011;51375;44.836;38.672;2024-02-04T18:21:25;4.45;;;2.00;;
64881;SDS011;51375;44.836;38.672;2024-02-04T18:23:52;2.63;;;1.60;;
64881;SDS011;51375;44.836;38.672;2024-02-04T18:28:52;4.15;;;1.90;;
64881;SDS011;51375;44.836;38.672;2024-02-04T18:31:19;2.83;;;1.70;;
64881;SDS011;51375;44.836;38.672;2024-02-04T18:33:46;2.00;;;1.45;;
64881;SDS011;51375;44.836;38.672;2024-02-04T18:36:14;3.38;;;1.60;;
64881;SDS011;51375;44.836;38.672;2024-02-04T18:38:55;2.30;;;1.42;;
64881;SDS011;51375;44.836;38.672;2024-02-04T18:41:23;2.55;;;1.45;;
64881;SDS011;51375;44.836;38.672;2024-02-04T18:43:50;2.00;;;1.40;;
64881;SDS011;51375;44.836;38.672;2024-02-04T18:46:19;3.25;;;1.50;;
64881;SDS011;51375;44.836;38.672;2024-02-04T18:48:45;1.63;;;1.45;;
64881;SDS011;51375;44.836;38.672;2024-02-04T18:51:11;2.35;;;1.58;;
64881;SDS011;51375;44.836;38.672;2024-02-04T18:53:37;3.45;;;1.58;;
64881;SDS011;51375;44.836;38.672;2024-02-04T18:56:03;1.83;;;1.48;;
64881;SDS011;51375;44.836;38.672;2024-02-04T18:58:30;3.55;;;1.90;;
64881;SDS011;51375;44.836;38.672;2024-02-04T19:00:57;3.28;;;1.65;;
64881;SDS011;51375;44.836;38.672;2024-02-04T19:03:23;4.88;;;1.90;;
64881;SDS011;51375;44.836;38.672;2024-02-04T19:05:49;2.35;;;1.60;;
64881;SDS011;51375;44.836;38.672;2024-02-04T19:08:16;5.88;;;1.83;;
64881;SDS011;51375;44.836;38.672;2024-02-04T19:10:41;3.10;;;1.88;;
64881;SDS011;51375;44.836;38.672;2024-02-04T19:13:07;2.67;;;1.75;;
64881;SDS011;51375;44.836;38.672;2024-02-04T19:15:33;4.20;;;1.77;;
64881;SDS011;51375;44.836;38.672;2024-02-04T19:18:00;2.55;;;1.65;;
64881;SDS011;51375;44.836;38.672;2024-02-04T19:20:28;2.20;;;1.58;;